sensor_id;sensor_type;location;lat;lon;timestamp;P1;durP1;ratioP1;P2;durP2;ratioP2
66927;SDS011;59882;45.624;11.698;2023-01-24T00:00:42;6.93;;;2.83;;
66927;SDS011;59882;45.624;11.698;2023-01-24T00:03:08;5.75;;;2.38;;
66927;SDS011;59882;45.624;11.698;2023-01-24T00:05:40;6.45;;;2.60;;
66927;SDS011;59882;45.624;11.698;2023-01-24T00:08:07;6.10;;;2.67;;
66927;SDS011;59882;45.624;11.698;2023-01-24T00:10:33;5.50;;;2.33;;
66927;SDS011;59882;45.624;11.698;2023-01-24T00:12:58;6.87;;;2.00;;
66927;SDS011;59882;45.624;11.698;2023-01-24T00:15:24;4.90;;;2.03;;
66927;SDS011;59882;45.624;11.698;2023-01-24T00:17:50;5.37;;;1.83;;
66927;SDS011;59882;45.624;11.698;2023-01-24T00:20:15;5.83;;;2.00;;
66927;SDS011;59882;45.624;11.698;2023-01-24T00:22:41;5.53;;;2.15;;
66927;SDS011;59882;45.624;11.698;2023-01-24T00:25:07;6.20;;;2.78;;
66927;SDS011;59882;45.624;11.698;2023-01-24T00:27:33;6.27;;;2.70;;
66927;SDS011;59882;45.624;11.698;2023-01-24T00:30:00;5.90;;;2.50;;
66927;SDS011;59882;45.624;11.698;2023-01-24T00:32:29;6.53;;;2.75;;
66927;SDS011;59882;45.624;11.698;2023-01-24T00:34:55;4.53;;;2.10;;
66927;SDS011;59882;45.624;11.698;2023-01-24T00:37:21;4.73;;;1.70;;
66927;SDS011;59882;45.624;11.698;2023-01-24T00:39:46;4.03;;;1.40;;
66927;SDS011;59882;45.624;11.698;2023-01-24T00:42:12;3.93;;;1.30;;
66927;SDS011;59882;45.624;11.698;2023-01-24T00:44:37;4.10;;;1.43;;
66927;SDS011;59882;45.624;11.698;2023-01-24T00:47:03;3.38;;;1.20;;
66927;SDS011;59882;45.624;11.698;2023-01-24T00:49:29;3.53;;;1.37;;
66927;SDS011;59882;45.624;11.698;2023-01-24T00:51:54;5.40;;;1.42;;
66927;SDS011;59882;45.624;11.698;2023-01-24T00:54:20;5.20;;;1.60;;
66927;SDS011;59882;45.624;11.698;2023-01-24T00:56:46;4.40;;;2.00;;
66927;SDS011;59882;45.624;11.698;2023-01-24T00:59:11;4.40;;;1.90;;
66927;SDS011;59882;45.624;11.698;2023-01-24T01:01:37;4.57;;;1.58;;
66927;SDS011;59882;45.624;11.698;2023-01-24T01:04:03;4.70;;;1.77;;
66927;SDS011;59882;45.624;11.698;2023-01-24T01:06:29;4.90;;;1.88;;
66927;SDS011;59882;45.624;11.698;2023-01-24T01:08:55;5.20;;;1.75;;
66927;SDS011;59882;45.624;11.698;2023-01-24T01:11:20;4.67;;;1.90;;
66927;SDS011;59882;45.624;11.698;2023-01-24T01:13:46;4.50;;;1.88;;
66927;SDS011;59882;45.624;11.698;2023-01-24T01:16:14;6.17;;;2.43;;
66927;SDS011;59882;45.624;11.698;2023-01-24T01:18:42;5.65;;;2.67;;
66927;SDS011;59882;45.624;11.698;2023-01-24T01:21:09;6.88;;;2.80;;
66927;SDS011;59882;45.624;11.698;2023-01-24T01:23:37;8.38;;;2.95;;
66927;SDS011;59882;45.624;11.698;2023-01-24T01:26:03;7.13;;;3.13;;
66927;SDS011;59882;45.624;11.698;2023-01-24T01:28:31;7.38;;;2.83;;
66927;SDS011;59882;45.624;11.698;2023-01-24T01:30:57;8.80;;;3.20;;
66927;SDS011;59882;45.624;11.698;2023-01-24T01:33:23;6.82;;;3.30;;
66927;SDS011;59882;45.624;11.698;2023-01-24T01:35:49;6.43;;;3.13;;
66927;SDS011;59882;45.624;11.698;2023-01-24T01:38:16;7.40;;;3.47;;
66927;SDS011;59882;45.624;11.698;2023-01-24T01:40:42;9.10;;;3.38;;
66927;SDS011;59882;45.624;11.698;2023-01-24T01:43:10;7.97;;;3.63;;
66927;SDS011;59882;45.624;11.698;2023-01-24T01:50:48;8.82;;;3.83;;
66927;SDS011;59882;45.624;11.698;2023-01-24T01:53:25;9.73;;;3.38;;
66927;SDS011;59882;45.624;11.698;2023-01-24T01:55:55;6.78;;;3.35;;
66927;SDS011;59882;45.624;11.698;2023-01-24T01:58:26;8.70;;;3.80;;
66927;SDS011;59882;45.624;11.698;2023-01-24T02:00:52;6.83;;;3.33;;
66927;SDS011;59882;45.624;11.698;2023-01-24T02:03:22;7.07;;;3.53;;
66927;SDS011;59882;45.624;11.698;2023-01-24T02:06:05;6.30;;;3.50;;
66927;SDS011;59882;45.624;11.698;2023-01-24T02:08:43;8.27;;;3.83;;
66927;SDS011;59882;45.624;11.698;2023-01-24T02:11:09;7.37;;;3.60;;
66927;SDS011;59882;45.624;11.698;2023-01-24T02:13:55;7.65;;;4.05;;
66927;SDS011;59882;45.624;11.698;2023-01-24T02:16:41;7.75;;;3.70;;
66927;SDS011;59882;45.624;11.698;2023-01-24T02:19:06;6.60;;;3.30;;
66927;SDS011;59882;45.624;11.698;2023-01-24T02:21:39;7.00;;;3.50;;
66927;SDS011;59882;45.624;11.698;2023-01-24T02:24:07;9.23;;;3.67;;
66927;SDS011;59882;45.624;11.698;2023-01-24T02:26:43;6.35;;;3.33;;
66927;SDS011;59882;45.624;11.698;2023-01-24T02:29:09;5.90;;;2.87;;
66927;SDS011;59882;45.624;11.698;2023-01-24T02:34:37;7.30;;;3.20;;
66927;SDS011;59882;45.624;11.698;2023-01-24T02:37:04;6.00;;;3.13;;
66927;SDS011;59882;45.624;11.698;2023-01-24T02:39:33;6.78;;;3.33;;
66927;SDS011;59882;45.624;11.698;2023-01-24T02:42:06;7.03;;;3.55;;
66927;SDS011;59882;45.624;11.698;2023-01-24T02:47:17;7.60;;;3.60;;
66927;SDS011;59882;45.624;11.698;2023-01-24T02:49:42;6.37;;;3.63;;
66927;SDS011;59882;45.624;11.698;2023-01-24T02:52:08;8.27;;;3.38;;
66927;SDS011;59882;45.624;11.698;2023-01-24T02:54:53;8.07;;;3.57;;
66927;SDS011;59882;45.624;11.698;2023-01-24T02:57:18;8.82;;;3.85;;
66927;SDS011;59882;45.624;11.698;2023-01-24T03:00:04;7.90;;;3.97;;
66927;SDS011;59882;45.624;11.698;2023-01-24T03:02:31;7.30;;;3.60;;
66927;SDS011;59882;45.624;11.698;2023-01-24T03:04:57;7.20;;;3.80;;
66927;SDS011;59882;45.624;11.698;2023-01-24T03:07:23;9.57;;;4.13;;
66927;SDS011;59882;45.624;11.698;2023-01-24T03:09:49;8.80;;;4.37;;
66927;SDS011;59882;45.624;11.698;2023-01-24T03:12:14;7.97;;;4.47;;
66927;SDS011;59882;45.624;11.698;2023-01-24T03:14:59;10.20;;;5.65;;
66927;SDS011;59882;45.624;11.698;2023-01-24T03:17:43;8.57;;;4.37;;
66927;SDS011;59882;45.624;11.698;2023-01-24T03:20:27;9.20;;;4.38;;
66927;SDS011;59882;45.624;11.698;2023-01-24T03:23:11;8.73;;;4.57;;
66927;SDS011;59882;45.624;11.698;2023-01-24T03:25:56;8.00;;;4.75;;
66927;SDS011;59882;45.624;11.698;2023-01-24T03:28:41;7.82;;;4.70;;
66927;SDS011;59882;45.624;11.698;2023-01-24T03:31:26;8.87;;;4.30;;
66927;SDS011;59882;45.624;11.698;2023-01-24T03:34:10;12.75;;;6.18;;
66927;SDS011;59882;45.624;11.698;2023-01-24T03:36:56;8.52;;;4.60;;
66927;SDS011;59882;45.624;11.698;2023-01-24T03:39:22;9.50;;;4.90;;
66927;SDS011;59882;45.624;11.698;2023-01-24T03:42:06;6.32;;;3.70;;
66927;SDS011;59882;45.624;11.698;2023-01-24T03:44:32;7.40;;;4.10;;
66927;SDS011;59882;45.624;11.698;2023-01-24T03:46:58;7.10;;;3.80;;
66927;SDS011;59882;45.624;11.698;2023-01-24T03:49:23;7.05;;;3.88;;
66927;SDS011;59882;45.624;11.698;2023-01-24T03:52:07;6.80;;;3.90;;
66927;SDS011;59882;45.624;11.698;2023-01-24T03:54:51;7.73;;;3.23;;
66927;SDS011;59882;45.624;11.698;2023-01-24T03:57:17;8.90;;;4.00;;
66927;SDS011;59882;45.624;11.698;2023-01-24T03:59:43;6.10;;;3.27;;
66927;SDS011;59882;45.624;11.698;2023-01-24T04:02:08;6.10;;;3.10;;
66927;SDS011;59882;45.624;11.698;2023-01-24T04:04:34;6.40;;;3.10;;
66927;SDS011;59882;45.624;11.698;2023-01-24T04:07:18;5.60;;;2.63;;
66927;SDS011;59882;45.624;11.698;2023-01-24T04:09:44;5.40;;;2.25;;
66927;SDS011;59882;45.624;11.698;2023-01-24T04:12:09;5.57;;;2.53;;
66927;SDS011;59882;45.624;11.698;2023-01-24T04:14:35;5.63;;;2.38;;
66927;SDS011;59882;45.624;11.698;2023-01-24T04:17:01;5.37;;;2.30;;
66927;SDS011;59882;45.624;11.698;2023-01-24T04:19:26;5.72;;;2.30;;
66927;SDS011;59882;45.624;11.698;2023-01-24T04:21:52;6.23;;;2.30;;
66927;SDS011;59882;45.624;11.698;2023-01-24T04:24:18;6.28;;;2.47;;
66927;SDS011;59882;45.624;11.698;2023-01-24T04:26:44;5.67;;;2.00;;
66927;SDS011;59882;45.624;11.698;2023-01-24T04:29:09;5.33;;;2.37;;
66927;SDS011;59882;45.624;11.698;2023-01-24T04:31:35;5.82;;;2.30;;
66927;SDS011;59882;45.624;11.698;2023-01-24T04:34:00;6.50;;;2.23;;
66927;SDS011;59882;45.624;11.698;2023-01-24T04:36:26;6.60;;;2.95;;
66927;SDS011;59882;45.624;11.698;2023-01-24T04:38:52;5.77;;;2.90;;
66927;SDS011;59882;45.624;11.698;2023-01-24T04:41:19;6.90;;;3.55;;
66927;SDS011;59882;45.624;11.698;2023-01-24T04:43:45;6.70;;;3.23;;
66927;SDS011;59882;45.624;11.698;2023-01-24T04:46:10;6.82;;;3.10;;
66927;SDS011;59882;45.624;11.698;2023-01-24T04:48:36;7.53;;;3.03;;
66927;SDS011;59882;45.624;11.698;2023-01-24T04:51:02;7.00;;;3.13;;
66927;SDS011;59882;45.624;11.698;2023-01-24T04:53:28;8.10;;;2.83;;
66927;SDS011;59882;45.624;11.698;2023-01-24T04:56:01;9.75;;;2.42;;
66927;SDS011;59882;45.624;11.698;2023-01-24T04:58:27;6.18;;;2.80;;
66927;SDS011;59882;45.624;11.698;2023-01-24T05:00:53;5.97;;;2.97;;
66927;SDS011;59882;45.624;11.698;2023-01-24T05:03:19;7.45;;;3.20;;
66927;SDS011;59882;45.624;11.698;2023-01-24T05:05:48;8.47;;;3.30;;
66927;SDS011;59882;45.624;11.698;2023-01-24T05:08:17;8.05;;;3.10;;
66927;SDS011;59882;45.624;11.698;2023-01-24T05:10:43;7.60;;;2.88;;
66927;SDS011;59882;45.624;11.698;2023-01-24T05:13:09;7.90;;;3.27;;
66927;SDS011;59882;45.624;11.698;2023-01-24T05:15:35;7.50;;;4.22;;
66927;SDS011;59882;45.624;11.698;2023-01-24T05:18:01;11.27;;;4.80;;
66927;SDS011;59882;45.624;11.698;2023-01-24T05:20:27;8.47;;;4.50;;
66927;SDS011;59882;45.624;11.698;2023-01-24T05:22:55;10.43;;;3.90;;
66927;SDS011;59882;45.624;11.698;2023-01-24T05:25:21;7.65;;;4.20;;
66927;SDS011;59882;45.624;11.698;2023-01-24T05:27:47;8.73;;;3.97;;
66927;SDS011;59882;45.624;11.698;2023-01-24T05:30:13;8.82;;;4.22;;
66927;SDS011;59882;45.624;11.698;2023-01-24T05:32:38;8.67;;;4.00;;
66927;SDS011;59882;45.624;11.698;2023-01-24T05:35:05;14.60;;;5.22;;
66927;SDS011;59882;45.624;11.698;2023-01-24T05:37:31;9.50;;;5.10;;
66927;SDS011;59882;45.624;11.698;2023-01-24T05:39:56;10.37;;;6.30;;
66927;SDS011;59882;45.624;11.698;2023-01-24T05:42:22;9.93;;;4.13;;
66927;SDS011;59882;45.624;11.698;2023-01-24T05:44:47;10.33;;;4.77;;
66927;SDS011;59882;45.624;11.698;2023-01-24T05:47:13;8.65;;;4.47;;
66927;SDS011;59882;45.624;11.698;2023-01-24T05:49:39;7.30;;;4.03;;
66927;SDS011;59882;45.624;11.698;2023-01-24T05:52:04;9.45;;;4.50;;
66927;SDS011;59882;45.624;11.698;2023-01-24T05:54:30;10.17;;;5.73;;
66927;SDS011;59882;45.624;11.698;2023-01-24T05:56:55;11.20;;;4.77;;
66927;SDS011;59882;45.624;11.698;2023-01-24T05:59:21;8.02;;;4.30;;
66927;SDS011;59882;45.624;11.698;2023-01-24T06:01:47;9.73;;;4.03;;
66927;SDS011;59882;45.624;11.698;2023-01-24T06:04:12;8.07;;;4.25;;
66927;SDS011;59882;45.624;11.698;2023-01-24T06:06:38;8.73;;;4.23;;
66927;SDS011;59882;45.624;11.698;2023-01-24T06:09:04;12.07;;;5.15;;
66927;SDS011;59882;45.624;11.698;2023-01-24T06:11:29;10.27;;;5.27;;
66927;SDS011;59882;45.624;11.698;2023-01-24T06:13:57;9.75;;;4.97;;
66927;SDS011;59882;45.624;11.698;2023-01-24T06:16:24;12.43;;;5.77;;
66927;SDS011;59882;45.624;11.698;2023-01-24T06:18:51;12.75;;;6.00;;
66927;SDS011;59882;45.624;11.698;2023-01-24T06:23:48;13.90;;;6.97;;
66927;SDS011;59882;45.624;11.698;2023-01-24T06:26:14;16.73;;;7.67;;
66927;SDS011;59882;45.624;11.698;2023-01-24T06:28:40;15.70;;;8.45;;
66927;SDS011;59882;45.624;11.698;2023-01-24T06:31:13;12.38;;;7.18;;
66927;SDS011;59882;45.624;11.698;2023-01-24T06:36:26;15.45;;;7.30;;
66927;SDS011;59882;45.624;11.698;2023-01-24T06:39:03;13.40;;;6.97;;
66927;SDS011;59882;45.624;11.698;2023-01-24T06:41:33;14.85;;;7.80;;
66927;SDS011;59882;45.624;11.698;2023-01-24T06:43:58;12.93;;;7.33;;
66927;SDS011;59882;45.624;11.698;2023-01-24T06:46:24;13.63;;;6.40;;
66927;SDS011;59882;45.624;11.698;2023-01-24T06:48:50;14.07;;;6.40;;
66927;SDS011;59882;45.624;11.698;2023-01-24T06:51:15;14.98;;;6.13;;
66927;SDS011;59882;45.624;11.698;2023-01-24T06:53:41;12.33;;;6.27;;
66927;SDS011;59882;45.624;11.698;2023-01-24T06:56:07;13.67;;;7.20;;
66927;SDS011;59882;45.624;11.698;2023-01-24T06:58:33;12.23;;;6.90;;
66927;SDS011;59882;45.624;11.698;2023-01-24T07:00:59;10.98;;;6.60;;
66927;SDS011;59882;45.624;11.698;2023-01-24T07:03:25;15.53;;;7.50;;
66927;SDS011;59882;45.624;11.698;2023-01-24T07:05:50;12.60;;;6.23;;
66927;SDS011;59882;45.624;11.698;2023-01-24T07:08:16;18.80;;;7.23;;
66927;SDS011;59882;45.624;11.698;2023-01-24T07:10:44;16.58;;;8.10;;
66927;SDS011;59882;45.624;11.698;2023-01-24T07:13:10;56.73;;;19.03;;
66927;SDS011;59882;45.624;11.698;2023-01-24T07:15:35;17.75;;;8.07;;
66927;SDS011;59882;45.624;11.698;2023-01-24T07:18:08;16.20;;;8.13;;
66927;SDS011;59882;45.624;11.698;2023-01-24T07:20:36;16.45;;;8.27;;
66927;SDS011;59882;45.624;11.698;2023-01-24T07:23:01;16.27;;;8.97;;
66927;SDS011;59882;45.624;11.698;2023-01-24T07:25:27;24.77;;;14.18;;
66927;SDS011;59882;45.624;11.698;2023-01-24T07:27:54;17.02;;;10.02;;
66927;SDS011;59882;45.624;11.698;2023-01-24T07:30:20;16.95;;;8.40;;
66927;SDS011;59882;45.624;11.698;2023-01-24T07:32:46;15.03;;;8.20;;
66927;SDS011;59882;45.624;11.698;2023-01-24T07:35:11;11.63;;;7.13;;
66927;SDS011;59882;45.624;11.698;2023-01-24T07:37:37;13.43;;;6.67;;
66927;SDS011;59882;45.624;11.698;2023-01-24T07:40:04;16.20;;;7.65;;
66927;SDS011;59882;45.624;11.698;2023-01-24T07:42:30;43.90;;;22.05;;
66927;SDS011;59882;45.624;11.698;2023-01-24T07:44:57;16.83;;;9.23;;
66927;SDS011;59882;45.624;11.698;2023-01-24T07:47:23;16.15;;;8.30;;
66927;SDS011;59882;45.624;11.698;2023-01-24T07:49:51;15.13;;;8.40;;
66927;SDS011;59882;45.624;11.698;2023-01-24T07:52:16;17.70;;;9.10;;
66927;SDS011;59882;45.624;11.698;2023-01-24T07:54:42;16.13;;;8.65;;
66927;SDS011;59882;45.624;11.698;2023-01-24T07:57:08;19.53;;;10.10;;
66927;SDS011;59882;45.624;11.698;2023-01-24T07:59:33;18.15;;;10.18;;
66927;SDS011;59882;45.624;11.698;2023-01-24T08:01:59;17.77;;;9.33;;
66927;SDS011;59882;45.624;11.698;2023-01-24T08:04:24;17.73;;;9.00;;
66927;SDS011;59882;45.624;11.698;2023-01-24T08:06:50;18.77;;;9.40;;
66927;SDS011;59882;45.624;11.698;2023-01-24T08:09:34;19.80;;;9.85;;
66927;SDS011;59882;45.624;11.698;2023-01-24T08:12:00;16.20;;;9.20;;
66927;SDS011;59882;45.624;11.698;2023-01-24T08:14:25;14.85;;;8.52;;
66927;SDS011;59882;45.624;11.698;2023-01-24T08:16:51;14.70;;;8.00;;
66927;SDS011;59882;45.624;11.698;2023-01-24T08:19:17;15.63;;;7.67;;
66927;SDS011;59882;45.624;11.698;2023-01-24T08:21:42;12.68;;;7.53;;
66927;SDS011;59882;45.624;11.698;2023-01-24T08:24:08;13.67;;;7.97;;
66927;SDS011;59882;45.624;11.698;2023-01-24T08:26:34;14.23;;;7.95;;
66927;SDS011;59882;45.624;11.698;2023-01-24T08:28:59;20.50;;;10.53;;
66927;SDS011;59882;45.624;11.698;2023-01-24T08:31:25;17.33;;;9.73;;
66927;SDS011;59882;45.624;11.698;2023-01-24T08:33:50;20.13;;;10.03;;
66927;SDS011;59882;45.624;11.698;2023-01-24T08:36:17;19.10;;;10.25;;
66927;SDS011;59882;45.624;11.698;2023-01-24T08:38:44;18.50;;;10.20;;
66927;SDS011;59882;45.624;11.698;2023-01-24T08:41:10;18.10;;;8.40;;
66927;SDS011;59882;45.624;11.698;2023-01-24T08:43:36;14.88;;;9.20;;
66927;SDS011;59882;45.624;11.698;2023-01-24T08:46:01;17.13;;;9.10;;
66927;SDS011;59882;45.624;11.698;2023-01-24T08:48:28;15.30;;;8.07;;
66927;SDS011;59882;45.624;11.698;2023-01-24T08:50:54;15.77;;;7.60;;
66927;SDS011;59882;45.624;11.698;2023-01-24T08:53:20;11.23;;;6.13;;
66927;SDS011;59882;45.624;11.698;2023-01-24T08:55:49;11.43;;;5.20;;
66927;SDS011;59882;45.624;11.698;2023-01-24T08:58:15;14.60;;;5.93;;
66927;SDS011;59882;45.624;11.698;2023-01-24T09:00:41;10.05;;;4.72;;
66927;SDS011;59882;45.624;11.698;2023-01-24T09:03:06;11.70;;;4.47;;
66927;SDS011;59882;45.624;11.698;2023-01-24T09:05:33;8.18;;;4.18;;
66927;SDS011;59882;45.624;11.698;2023-01-24T09:07:59;8.17;;;4.27;;
66927;SDS011;59882;45.624;11.698;2023-01-24T09:10:25;7.75;;;4.28;;
66927;SDS011;59882;45.624;11.698;2023-01-24T09:12:51;9.68;;;4.28;;
66927;SDS011;59882;45.624;11.698;2023-01-24T09:15:17;9.63;;;4.77;;
66927;SDS011;59882;45.624;11.698;2023-01-24T09:17:42;10.00;;;4.60;;
66927;SDS011;59882;45.624;11.698;2023-01-24T09:20:09;11.05;;;4.50;;
66927;SDS011;59882;45.624;11.698;2023-01-24T09:22:35;8.07;;;4.67;;
66927;SDS011;59882;45.624;11.698;2023-01-24T09:25:01;9.05;;;3.50;;
66927;SDS011;59882;45.624;11.698;2023-01-24T09:27:28;7.28;;;2.35;;
66927;SDS011;59882;45.624;11.698;2023-01-24T09:29:54;6.30;;;2.20;;
66927;SDS011;59882;45.624;11.698;2023-01-24T09:32:20;4.53;;;1.70;;
66927;SDS011;59882;45.624;11.698;2023-01-24T09:34:45;4.33;;;1.50;;
66927;SDS011;59882;45.624;11.698;2023-01-24T09:37:16;5.82;;;1.73;;
66927;SDS011;59882;45.624;11.698;2023-01-24T09:39:43;5.10;;;1.58;;
66927;SDS011;59882;45.624;11.698;2023-01-24T09:45:13;4.72;;;1.52;;
66927;SDS011;59882;45.624;11.698;2023-01-24T09:47:50;4.88;;;1.52;;
66927;SDS011;59882;45.624;11.698;2023-01-24T09:50:23;3.63;;;1.00;;
66927;SDS011;59882;45.624;11.698;2023-01-24T09:52:55;3.42;;;1.20;;
66927;SDS011;59882;45.624;11.698;2023-01-24T09:55:29;6.47;;;1.70;;
66927;SDS011;59882;45.624;11.698;2023-01-24T09:58:03;5.32;;;2.03;;
66927;SDS011;59882;45.624;11.698;2023-01-24T10:00:37;5.82;;;2.10;;
66927;SDS011;59882;45.624;11.698;2023-01-24T10:03:19;4.63;;;1.63;;
66927;SDS011;59882;45.624;11.698;2023-01-24T10:05:48;5.13;;;1.80;;
66927;SDS011;59882;45.624;11.698;2023-01-24T10:13:50;7.43;;;1.80;;
66927;SDS011;59882;45.624;11.698;2023-01-24T10:21:52;5.53;;;2.08;;
66927;SDS011;59882;45.624;11.698;2023-01-24T10:24:41;5.43;;;2.20;;
66927;SDS011;59882;45.624;11.698;2023-01-24T10:27:18;4.88;;;2.10;;
66927;SDS011;59882;45.624;11.698;2023-01-24T10:29:54;4.83;;;1.70;;
66927;SDS011;59882;45.624;11.698;2023-01-24T10:32:29;5.85;;;1.73;;
66927;SDS011;59882;45.624;11.698;2023-01-24T10:34:58;4.55;;;1.50;;
66927;SDS011;59882;45.624;11.698;2023-01-24T10:37:37;5.07;;;1.75;;
66927;SDS011;59882;45.624;11.698;2023-01-24T10:40:13;4.00;;;1.48;;
66927;SDS011;59882;45.624;11.698;2023-01-24T10:42:41;4.03;;;1.43;;
66927;SDS011;59882;45.624;11.698;2023-01-24T10:48:11;4.57;;;1.30;;
66927;SDS011;59882;45.624;11.698;2023-01-24T10:50:48;3.95;;;1.33;;
66927;SDS011;59882;45.624;11.698;2023-01-24T10:53:14;4.13;;;1.20;;
66927;SDS011;59882;45.624;11.698;2023-01-24T10:56:13;10.15;;;1.80;;
66927;SDS011;59882;45.624;11.698;2023-01-24T10:58:42;5.05;;;1.48;;
66927;SDS011;59882;45.624;11.698;2023-01-24T11:01:19;4.15;;;1.63;;
66927;SDS011;59882;45.624;11.698;2023-01-24T11:03:47;3.80;;;1.47;;
66927;SDS011;59882;45.624;11.698;2023-01-24T11:06:22;8.02;;;3.20;;
66927;SDS011;59882;45.624;11.698;2023-01-24T11:09:12;3.75;;;1.15;;
66927;SDS011;59882;45.624;11.698;2023-01-24T11:11:41;8.02;;;1.77;;
66927;SDS011;59882;45.624;11.698;2023-01-24T11:14:12;4.82;;;1.42;;
66927;SDS011;59882;45.624;11.698;2023-01-24T11:16:42;4.43;;;1.90;;
66927;SDS011;59882;45.624;11.698;2023-01-24T11:21:52;4.75;;;1.60;;
66927;SDS011;59882;45.624;11.698;2023-01-24T11:24:19;5.10;;;1.30;;
66927;SDS011;59882;45.624;11.698;2023-01-24T11:26:50;6.60;;;1.48;;
66927;SDS011;59882;45.624;11.698;2023-01-24T11:29:19;4.87;;;1.50;;
66927;SDS011;59882;45.624;11.698;2023-01-24T11:34:39;5.07;;;1.48;;
66927;SDS011;59882;45.624;11.698;2023-01-24T11:42:35;6.73;;;2.13;;
66927;SDS011;59882;45.624;11.698;2023-01-24T11:50:27;7.57;;;1.87;;
66927;SDS011;59882;45.624;11.698;2023-01-24T12:22:46;8.27;;;3.35;;
66927;SDS011;59882;45.624;11.698;2023-01-24T12:25:22;9.57;;;2.65;;
66927;SDS011;59882;45.624;11.698;2023-01-24T12:28:00;6.03;;;2.07;;
66927;SDS011;59882;45.624;11.698;2023-01-24T12:30:30;4.15;;;2.00;;
66927;SDS011;59882;45.624;11.698;2023-01-24T12:33:17;6.80;;;2.35;;
66927;SDS011;59882;45.624;11.698;2023-01-24T12:35:56;6.78;;;3.63;;
66927;SDS011;59882;45.624;11.698;2023-01-24T12:46:14;10.45;;;3.53;;
66927;SDS011;59882;45.624;11.698;2023-01-24T12:49:12;3.05;;;1.00;;
66927;SDS011;59882;45.624;11.698;2023-01-24T12:52:00;8.48;;;2.50;;
66927;SDS011;59882;45.624;11.698;2023-01-24T12:54:46;6.13;;;1.77;;
66927;SDS011;59882;45.624;11.698;2023-01-24T12:57:24;5.05;;;1.50;;
66927;SDS011;59882;45.624;11.698;2023-01-24T12:59:55;9.35;;;1.50;;
66927;SDS011;59882;45.624;11.698;2023-01-24T13:13:43;5.28;;;1.58;;
66927;SDS011;59882;45.624;11.698;2023-01-24T13:18:54;7.30;;;3.97;;
66927;SDS011;59882;45.624;11.698;2023-01-24T13:29:45;3.85;;;0.80;;
66927;SDS011;59882;45.624;11.698;2023-01-24T13:32:15;3.78;;;0.73;;
66927;SDS011;59882;45.624;11.698;2023-01-24T13:34:52;6.03;;;0.90;;
66927;SDS011;59882;45.624;11.698;2023-01-24T13:37:24;4.75;;;1.00;;
66927;SDS011;59882;45.624;11.698;2023-01-24T13:42:40;5.15;;;1.70;;
66927;SDS011;59882;45.624;11.698;2023-01-24T13:47:59;4.32;;;2.05;;
66927;SDS011;59882;45.624;11.698;2023-01-24T13:50:26;5.00;;;1.40;;
66927;SDS011;59882;45.624;11.698;2023-01-24T13:52:56;5.70;;;1.40;;
66927;SDS011;59882;45.624;11.698;2023-01-24T14:00:33;5.13;;;2.05;;
66927;SDS011;59882;45.624;11.698;2023-01-24T14:05:51;6.13;;;2.70;;
66927;SDS011;59882;45.624;11.698;2023-01-24T14:10:49;8.77;;;2.60;;
66927;SDS011;59882;45.624;11.698;2023-01-24T14:16:58;5.00;;;1.10;;
66927;SDS011;59882;45.624;11.698;2023-01-24T14:19:17;4.15;;;1.48;;
66927;SDS011;59882;45.624;11.698;2023-01-24T14:24:35;5.30;;;2.15;;
66927;SDS011;59882;45.624;11.698;2023-01-24T14:35:19;21.00;;;11.80;;
66927;SDS011;59882;45.624;11.698;2023-01-24T14:37:48;16.90;;;8.55;;
66927;SDS011;59882;45.624;11.698;2023-01-24T14:42:49;15.15;;;6.72;;
66927;SDS011;59882;45.624;11.698;2023-01-24T14:45:17;9.52;;;4.65;;
66927;SDS011;59882;45.624;11.698;2023-01-24T14:47:48;9.03;;;3.07;;
66927;SDS011;59882;45.624;11.698;2023-01-24T14:50:29;6.82;;;2.42;;
66927;SDS011;59882;45.624;11.698;2023-01-24T14:53:00;5.55;;;2.30;;
66927;SDS011;59882;45.624;11.698;2023-01-24T14:57:52;8.93;;;1.40;;
66927;SDS011;59882;45.624;11.698;2023-01-24T15:00:19;4.93;;;1.73;;
66927;SDS011;59882;45.624;11.698;2023-01-24T15:02:53;4.18;;;1.20;;
66927;SDS011;59882;45.624;11.698;2023-01-24T15:07:49;5.77;;;1.33;;
66927;SDS011;59882;45.624;11.698;2023-01-24T15:10:14;5.20;;;1.73;;
66927;SDS011;59882;45.624;11.698;2023-01-24T15:12:40;6.73;;;1.67;;
66927;SDS011;59882;45.624;11.698;2023-01-24T15:15:06;5.63;;;1.65;;
66927;SDS011;59882;45.624;11.698;2023-01-24T15:17:43;6.70;;;2.25;;
66927;SDS011;59882;45.624;11.698;2023-01-24T15:20:18;12.35;;;2.78;;
66927;SDS011;59882;45.624;11.698;2023-01-24T15:22:50;11.60;;;4.43;;
66927;SDS011;59882;45.624;11.698;2023-01-24T15:25:21;11.30;;;4.47;;
66927;SDS011;59882;45.624;11.698;2023-01-24T15:27:52;15.02;;;4.90;;
66927;SDS011;59882;45.624;11.698;2023-01-24T15:30:21;11.50;;;5.65;;
66927;SDS011;59882;45.624;11.698;2023-01-24T15:33:38;13.63;;;6.37;;
66927;SDS011;59882;45.624;11.698;2023-01-24T15:35:37;13.23;;;5.50;;
66927;SDS011;59882;45.624;11.698;2023-01-24T15:40:47;17.60;;;6.63;;
66927;SDS011;59882;45.624;11.698;2023-01-24T15:43:29;16.15;;;6.70;;
66927;SDS011;59882;45.624;11.698;2023-01-24T15:46:17;15.20;;;6.03;;
66927;SDS011;59882;45.624;11.698;2023-01-24T15:49:15;29.92;;;8.70;;
66927;SDS011;59882;45.624;11.698;2023-01-24T15:54:27;25.73;;;10.98;;
66927;SDS011;59882;45.624;11.698;2023-01-24T15:56:53;34.85;;;14.10;;
66927;SDS011;59882;45.624;11.698;2023-01-24T15:59:22;30.87;;;13.17;;
66927;SDS011;59882;45.624;11.698;2023-01-24T16:01:48;28.45;;;13.55;;
66927;SDS011;59882;45.624;11.698;2023-01-24T16:04:15;21.17;;;11.05;;
66927;SDS011;59882;45.624;11.698;2023-01-24T16:06:42;19.43;;;9.00;;
66927;SDS011;59882;45.624;11.698;2023-01-24T16:09:08;20.50;;;10.05;;
66927;SDS011;59882;45.624;11.698;2023-01-24T16:11:41;23.30;;;11.68;;
66927;SDS011;59882;45.624;11.698;2023-01-24T16:14:13;24.80;;;11.07;;
66927;SDS011;59882;45.624;11.698;2023-01-24T16:16:43;22.08;;;11.43;;
66927;SDS011;59882;45.624;11.698;2023-01-24T16:19:13;22.05;;;10.50;;
66927;SDS011;59882;45.624;11.698;2023-01-24T16:21:40;24.90;;;10.68;;
66927;SDS011;59882;45.624;11.698;2023-01-24T16:24:06;25.40;;;9.93;;
66927;SDS011;59882;45.624;11.698;2023-01-24T16:26:32;21.30;;;10.07;;
66927;SDS011;59882;45.624;11.698;2023-01-24T16:28:58;21.38;;;11.02;;
66927;SDS011;59882;45.624;11.698;2023-01-24T16:31:24;26.33;;;14.67;;
66927;SDS011;59882;45.624;11.698;2023-01-24T16:33:50;33.58;;;14.85;;
66927;SDS011;59882;45.624;11.698;2023-01-24T16:36:15;23.43;;;13.63;;
66927;SDS011;59882;45.624;11.698;2023-01-24T16:38:41;27.10;;;13.82;;
66927;SDS011;59882;45.624;11.698;2023-01-24T16:41:08;22.23;;;10.63;;
66927;SDS011;59882;45.624;11.698;2023-01-24T16:43:35;20.25;;;9.65;;
66927;SDS011;59882;45.624;11.698;2023-01-24T16:46:01;17.45;;;9.25;;
66927;SDS011;59882;45.624;11.698;2023-01-24T16:48:26;18.67;;;8.73;;
66927;SDS011;59882;45.624;11.698;2023-01-24T16:50:54;19.33;;;9.18;;
66927;SDS011;59882;45.624;11.698;2023-01-24T16:53:20;15.17;;;8.33;;
66927;SDS011;59882;45.624;11.698;2023-01-24T16:55:53;20.03;;;7.90;;
66927;SDS011;59882;45.624;11.698;2023-01-24T16:58:20;13.68;;;7.85;;
66927;SDS011;59882;45.624;11.698;2023-01-24T17:00:46;16.50;;;8.57;;
66927;SDS011;59882;45.624;11.698;2023-01-24T17:03:11;17.60;;;9.80;;
66927;SDS011;59882;45.624;11.698;2023-01-24T17:05:38;18.93;;;9.93;;
66927;SDS011;59882;45.624;11.698;2023-01-24T17:08:05;24.33;;;12.07;;
66927;SDS011;59882;45.624;11.698;2023-01-24T17:10:30;25.60;;;11.82;;
66927;SDS011;59882;45.624;11.698;2023-01-24T17:12:56;22.83;;;11.80;;